createdAt,value
2022-08-29T00:01:42.864Z,4.23
2022-08-29T00:04:11.870Z,4.27
2022-08-29T00:06:40.339Z,5.20
2022-08-29T00:09:08.735Z,5.13
2022-08-29T00:11:37.227Z,4.87
2022-08-29T00:14:20.969Z,4.70
2022-08-29T00:16:52.909Z,4.90
2022-08-29T00:19:22.497Z,4.73
2022-08-29T00:22:14.699Z,4.90
2022-08-29T00:24:48.526Z,4.83
2022-08-29T00:27:17.472Z,5.27
2022-08-29T00:29:47.664Z,4.83
2022-08-29T00:32:19.104Z,4.37
2022-08-29T00:34:47.590Z,4.57
2022-08-29T00:37:16.152Z,4.77
2022-08-29T00:39:45.229Z,4.60
2022-08-29T00:42:13.998Z,5.00
2022-08-29T00:44:42.827Z,4.03
2022-08-29T00:47:14.129Z,4.20
2022-08-29T00:49:46.155Z,4.70
2022-08-29T00:52:21.037Z,4.50
2022-08-29T00:54:54.998Z,4.77
2022-08-29T00:57:24.812Z,4.70
2022-08-29T00:59:53.487Z,4.87
2022-08-29T01:02:23.349Z,4.77
2022-08-29T01:04:51.677Z,4.67
2022-08-29T01:07:20.533Z,4.07
2022-08-29T01:09:48.963Z,4.13
2022-08-29T01:12:19.643Z,4.60
2022-08-29T01:14:52.382Z,4.77
2022-08-29T01:17:29.611Z,4.93
2022-08-29T01:20:01.207Z,4.27
2022-08-29T01:22:48.787Z,4.47
2022-08-29T01:25:23.588Z,4.80
2022-08-29T01:28:03.551Z,3.97
2022-08-29T01:30:32.502Z,4.13
2022-08-29T01:33:01.109Z,4.10
2022-08-29T01:35:32.058Z,4.00
2022-08-29T01:38:02.386Z,3.97
2022-08-29T01:40:36.426Z,4.17
2022-08-29T01:43:04.988Z,4.30
2022-08-29T01:45:36.240Z,4.20
2022-08-29T01:48:05.381Z,4.57
2022-08-29T01:50:34.095Z,4.47
2022-08-29T01:53:02.631Z,3.93
2022-08-29T01:55:32.871Z,4.37
2022-08-29T01:58:01.370Z,4.60
2022-08-29T02:00:30.294Z,4.40
2022-08-29T02:03:01.035Z,4.40
2022-08-29T02:05:30.442Z,4.63
2022-08-29T02:07:59.273Z,4.87
2022-08-29T02:10:28.136Z,4.67
2022-08-29T02:13:00.534Z,4.30
2022-08-29T02:15:29.275Z,4.63
2022-08-29T02:17:57.744Z,4.10
2022-08-29T02:20:26.147Z,4.60
2022-08-29T02:22:54.560Z,4.80
2022-08-29T02:25:40.371Z,4.47
2022-08-29T02:28:12.216Z,4.60
2022-08-29T02:30:40.824Z,4.37
2022-08-29T02:33:09.667Z,4.87
2022-08-29T02:35:42.781Z,4.63
2022-08-29T02:38:11.859Z,4.27
2022-08-29T02:40:41.083Z,3.97
2022-08-29T02:43:11.651Z,4.20
2022-08-29T02:45:43.584Z,4.30
2022-08-29T02:48:13.598Z,4.13
2022-08-29T02:50:43.176Z,3.67
2022-08-29T02:53:13.379Z,3.30
2022-08-29T02:55:41.912Z,4.37
2022-08-29T02:58:12.111Z,4.10
2022-08-29T03:00:41.415Z,3.67
2022-08-29T03:03:10.527Z,4.07
2022-08-29T03:05:39.039Z,4.00
2022-08-29T03:08:09.660Z,4.00
2022-08-29T03:10:38.709Z,3.90
2022-08-29T03:13:07.033Z,3.97
2022-08-29T03:15:36.811Z,3.60
2022-08-29T03:18:05.755Z,3.53
2022-08-29T03:20:35.902Z,3.77
2022-08-29T03:23:21.380Z,4.50
2022-08-29T03:25:56.812Z,3.93
2022-08-29T03:28:32.178Z,4.10
2022-08-29T03:31:12.814Z,4.33
2022-08-29T03:33:50.847Z,4.37
2022-08-29T03:36:35.506Z,4.30
2022-08-29T03:39:09.759Z,4.57
2022-08-29T03:42:06.090Z,5.33
2022-08-29T03:44:36.162Z,5.00
2022-08-29T03:47:19.024Z,4.47
2022-08-29T03:50:14.880Z,4.50
2022-08-29T03:53:09.597Z,4.77
2022-08-29T03:55:52.285Z,4.50
2022-08-29T03:58:23.828Z,4.33
2022-08-29T04:00:52.205Z,4.33
2022-08-29T04:03:25.040Z,4.03
2022-08-29T04:06:00.068Z,4.30
2022-08-29T04:08:28.664Z,4.20
2022-08-29T04:10:57.049Z,4.90
2022-08-29T04:13:26.116Z,4.53
2022-08-29T04:15:54.673Z,4.93
2022-08-29T04:18:24.315Z,4.67
2022-08-29T04:20:52.623Z,5.00
2022-08-29T04:23:21.007Z,4.73
2022-08-29T04:25:49.552Z,4.77
2022-08-29T04:28:21.007Z,5.07
2022-08-29T04:30:51.840Z,4.80
2022-08-29T04:33:24.311Z,4.83
2022-08-29T04:35:54.382Z,5.30
2022-08-29T04:38:23.229Z,5.10
2022-08-29T04:40:51.954Z,5.10
2022-08-29T04:43:20.536Z,5.57
2022-08-29T04:45:55.889Z,6.00
2022-08-29T04:48:26.012Z,6.13
2022-08-29T04:50:56.482Z,5.90
2022-08-29T04:53:26.258Z,5.87
2022-08-29T04:55:58.695Z,6.43
2022-08-29T04:59:36.851Z,6.03
2022-08-29T05:33:34.081Z,6.20
2022-08-29T05:36:02.387Z,5.77
2022-08-29T05:38:30.635Z,6.13
2022-08-29T05:40:58.802Z,6.67
2022-08-29T05:43:27.125Z,6.10
2022-08-29T05:46:02.976Z,6.00
2022-08-29T05:48:45.977Z,6.00
2022-08-29T05:52:11.718Z,5.90
2022-08-29T05:55:27.345Z,5.70
2022-08-29T05:58:10.247Z,5.07
2022-08-29T06:03:45.430Z,4.67
2022-08-29T06:06:29.347Z,4.43
2022-08-29T06:09:07.143Z,4.73
2022-08-29T06:12:14.018Z,4.90
2022-08-29T06:16:50.015Z,4.97
2022-08-29T06:20:19.972Z,4.47
2022-08-29T06:23:27.366Z,5.20
2022-08-29T06:26:17.293Z,4.50
2022-08-29T06:28:57.270Z,4.77
2022-08-29T06:31:33.122Z,4.50
2022-08-29T06:34:10.908Z,5.17
2022-08-29T06:36:54.493Z,4.70
2022-08-29T06:39:24.662Z,4.17
2022-08-29T06:41:53.573Z,4.30
2022-08-29T06:44:30.595Z,3.87
2022-08-29T06:47:00.405Z,3.60
2022-08-29T06:49:30.732Z,3.80
2022-08-29T06:52:09.394Z,3.70
2022-08-29T06:54:39.917Z,3.87
2022-08-29T06:57:10.569Z,3.50
2022-08-29T06:59:39.189Z,3.43
2022-08-29T07:02:08.174Z,3.70
2022-08-29T07:04:50.642Z,3.23
2022-08-29T07:07:54.267Z,3.23
2022-08-29T07:10:47.633Z,3.23
2022-08-29T07:14:06.885Z,3.20
2022-08-29T07:16:40.734Z,3.30
2022-08-29T07:19:11.773Z,2.60
2022-08-29T07:22:05.531Z,3.57
2022-08-29T07:24:53.750Z,3.50
2022-08-29T07:28:07.944Z,3.20
2022-08-29T07:31:19.494Z,2.50
2022-08-29T07:34:02.353Z,3.07
2022-08-29T07:36:58.269Z,2.90
2022-08-29T07:39:57.168Z,2.73
2022-08-29T07:42:40.970Z,2.60
2022-08-29T07:45:20.862Z,2.80
2022-08-29T07:47:49.733Z,2.50
2022-08-29T07:50:18.975Z,2.50
2022-08-29T07:52:57.534Z,2.70
2022-08-29T07:55:43.720Z,2.80
2022-08-29T07:58:28.168Z,2.80
2022-08-29T08:01:06.425Z,2.73
2022-08-29T08:03:53.530Z,2.80
2022-08-29T08:07:03.138Z,2.80
2022-08-29T08:10:03.037Z,3.10
2022-08-29T08:13:06.636Z,2.73
2022-08-29T08:16:13.920Z,2.40
2022-08-29T08:19:19.653Z,2.83
2022-08-29T08:21:57.999Z,2.97
2022-08-29T08:25:14.110Z,3.10
2022-08-29T08:31:18.347Z,2.90
2022-08-29T08:34:54.651Z,3.60
2022-08-29T08:38:08.562Z,3.10
2022-08-29T08:41:21.038Z,3.27
2022-08-29T08:47:05.087Z,3.17
2022-08-29T09:01:50.050Z,3.67
2022-08-29T09:05:18.490Z,4.00
2022-08-29T09:35:08.471Z,3.17
2022-08-29T09:37:38.121Z,2.90
2022-08-29T09:40:10.875Z,3.10
2022-08-29T09:42:43.230Z,3.27
2022-08-29T09:45:20.159Z,3.30
2022-08-29T09:47:48.450Z,3.27
2022-08-29T09:50:24.704Z,3.10
2022-08-29T09:52:55.173Z,3.20
2022-08-29T09:55:31.087Z,3.33
2022-08-29T09:58:04.244Z,3.43
2022-08-29T10:00:35.870Z,3.13
2022-08-29T10:03:06.707Z,3.30
2022-08-29T10:05:44.584Z,3.50
2022-08-29T10:08:28.582Z,3.33
2022-08-29T10:10:59.570Z,3.10
2022-08-29T10:13:37.625Z,2.93
2022-08-29T10:16:16.714Z,3.60
2022-08-29T10:18:48.715Z,3.50
2022-08-29T10:21:30.563Z,3.83
2022-08-29T10:24:54.293Z,3.07
2022-08-29T10:27:37.134Z,3.10
2022-08-29T10:30:13.007Z,3.13
2022-08-29T10:33:05.766Z,3.07
2022-08-29T10:35:40.321Z,3.33
2022-08-29T10:38:19.810Z,3.07
2022-08-29T10:40:52.457Z,3.33
2022-08-29T10:43:38.685Z,3.10
2022-08-29T10:46:34.905Z,3.20
2022-08-29T10:49:13.035Z,3.37
2022-08-29T10:51:49.752Z,3.47
2022-08-29T10:54:29.611Z,3.20
2022-08-29T10:56:58.807Z,2.60
2022-08-29T10:59:34.934Z,3.67
2022-08-29T11:02:09.786Z,3.20
2022-08-29T11:04:41.626Z,3.17
2022-08-29T11:07:16.236Z,3.40
2022-08-29T11:09:50.914Z,3.50
2022-08-29T11:12:22.692Z,2.90
2022-08-29T11:14:58.475Z,3.20
2022-08-29T11:17:32.382Z,3.47
2022-08-29T11:20:09.695Z,3.10
2022-08-29T11:22:45.502Z,3.47
2022-08-29T11:25:18.811Z,3.20
2022-08-29T11:27:54.996Z,3.40
2022-08-29T11:30:29.320Z,3.33
2022-08-29T11:33:10.508Z,3.20
2022-08-29T11:35:46.882Z,3.30
2022-08-29T11:38:51.549Z,3.50
2022-08-29T11:41:31.531Z,3.17
2022-08-29T11:44:14.287Z,3.40
2022-08-29T11:46:49.038Z,3.28
2022-08-29T11:49:34.121Z,3.17
2022-08-29T11:52:18.943Z,3.15
2022-08-29T11:55:09.853Z,3.17
2022-08-29T11:57:54.831Z,3.50
2022-08-29T12:00:48.151Z,3.97
2022-08-29T12:03:53.780Z,3.50
2022-08-29T12:06:42.559Z,3.55
2022-08-29T12:09:44.403Z,3.42
2022-08-29T12:12:19.388Z,3.50
2022-08-29T12:14:52.707Z,3.30
2022-08-29T12:18:01.510Z,2.80
2022-08-29T12:20:42.931Z,3.28
2022-08-29T12:23:31.506Z,3.33
2022-08-29T12:26:22.786Z,3.00
2022-08-29T12:28:59.387Z,3.03
2022-08-29T12:31:56.788Z,2.70
2022-08-29T12:34:49.894Z,3.50
2022-08-29T12:37:32.621Z,2.85
2022-08-29T12:40:18.910Z,3.40
2022-08-29T12:42:58.008Z,2.80
2022-08-29T12:45:30.447Z,3.30
2022-08-29T12:48:06.422Z,3.22
2022-08-29T12:50:37.720Z,2.78
2022-08-29T12:53:07.867Z,3.25
2022-08-29T12:55:42.058Z,2.88
2022-08-29T12:58:12.975Z,3.30
2022-08-29T13:00:43.645Z,3.08
2022-08-29T13:03:20.444Z,3.22
2022-08-29T13:05:49.880Z,2.70
2022-08-29T13:08:30.579Z,3.38
2022-08-29T13:11:02.025Z,3.10
2022-08-29T13:13:31.301Z,2.90
2022-08-29T13:16:02.797Z,2.90
2022-08-29T13:18:40.467Z,3.00
2022-08-29T13:21:24.603Z,2.80
2022-08-29T13:24:05.543Z,3.00
2022-08-29T13:26:34.960Z,2.92
2022-08-29T13:29:23.198Z,3.33
2022-08-29T13:32:10.439Z,2.85
2022-08-29T13:34:59.652Z,3.03
2022-08-29T13:37:32.025Z,2.92
2022-08-29T13:40:31.570Z,2.80
2022-08-29T13:43:03.102Z,2.58
2022-08-29T13:45:32.264Z,2.88
2022-08-29T13:48:14.562Z,2.90
2022-08-29T13:53:14.151Z,2.70
2022-08-29T13:55:44.871Z,2.80
2022-08-29T13:58:15.332Z,2.90
2022-08-29T14:00:44.625Z,3.05
2022-08-29T14:03:17.035Z,3.20
2022-08-29T14:05:46.009Z,3.22
2022-08-29T14:08:15.126Z,2.92
2022-08-29T14:10:45.562Z,2.90
2022-08-29T14:13:14.198Z,2.75
2022-08-29T14:15:42.795Z,3.00
2022-08-29T14:18:12.000Z,2.88
2022-08-29T14:20:40.422Z,2.95
2022-08-29T14:23:08.838Z,2.85
2022-08-29T14:25:40.336Z,2.90
2022-08-29T15:14:35.048Z,2.92
2022-08-29T15:17:25.753Z,2.80
2022-08-29T15:20:37.213Z,3.40
2022-08-29T16:05:22.263Z,3.28
2022-08-29T16:15:00.392Z,3.08
2022-08-29T16:18:02.243Z,2.80
2022-08-29T17:02:44.397Z,10.93
2022-08-29T17:24:50.475Z,2.80
2022-08-29T20:04:37.631Z,3.70
2022-08-29T21:04:38.831Z,3.47
2022-08-29T21:08:26.626Z,3.43
2022-08-29T21:12:34.235Z,3.97
2022-08-29T21:15:42.363Z,3.57
2022-08-29T21:23:39.441Z,3.60
2022-08-29T21:27:42.785Z,3.73
2022-08-29T21:31:22.524Z,3.40
2022-08-29T21:43:18.305Z,3.63
2022-08-29T21:47:17.942Z,3.53
2022-08-29T21:51:19.074Z,4.10
2022-08-29T21:58:38.529Z,4.00
2022-08-29T22:02:13.047Z,3.87
2022-08-29T22:06:08.445Z,4.10
2022-08-29T22:13:32.875Z,3.53
2022-08-29T22:16:56.101Z,3.53
2022-08-29T22:23:53.182Z,3.80
2022-08-29T22:27:15.181Z,3.80
2022-08-29T22:30:34.224Z,3.50
2022-08-29T22:33:50.878Z,4.03
2022-08-29T22:37:54.895Z,3.70
2022-08-29T22:41:12.955Z,3.30
2022-08-29T22:45:02.734Z,3.43
2022-08-29T22:48:16.569Z,3.40
2022-08-29T22:51:20.148Z,3.33
2022-08-29T22:57:33.480Z,3.30
2022-08-29T23:00:40.184Z,3.37
2022-08-29T23:03:56.740Z,3.40
2022-08-29T23:07:22.784Z,3.63
